Time;durP1;ratioP1;P1;durP2;ratioP2;P2;SDS_P1;SDS_P2;PMS_P1;PMS_P2;Temp;Humidity;BMP_temperature;BMP_pressure;BME280_temperature;BME280_humidity;BME280_pressure;Samples;Min_cycle;Max_cycle;Signal;HPM_P1;HPM_P2
2022/05/31 00:02:16;;;;;;;6.03;4.50;;;8.30;99.90;;;;;;5160368;27;20047;-82
2022/05/31 00:04:43;;;;;;;6.72;4.10;;;8.30;99.90;;;;;;5142115;27;20494;-82
2022/05/31 00:07:09;;;;;;;5.93;4.18;;;8.60;99.90;;;;;;5141676;27;20106;-82
2022/05/31 00:09:36;;;;;;;4.95;4.00;;;8.40;99.90;;;;;;5159307;27;20125;-83
2022/05/31 00:12:06;;;;;;;6.25;3.83;;;8.30;99.90;;;;;;5139671;27;20051;-82
2022/05/31 00:14:33;;;;;;;5.85;3.85;;;8.30;99.90;;;;;;5140406;27;20102;-82
2022/05/31 00:17:01;;;;;;;5.07;3.90;;;8.30;99.90;;;;;;5159218;27;20043;-82
2022/05/31 00:19:28;;;;;;;7.20;4.75;;;8.30;99.90;;;;;;5139533;27;20506;-82
2022/05/31 00:22:10;;;;;;;6.63;4.65;;;8.30;99.90;;;;;;5158758;27;20051;-83
2022/05/31 00:24:39;;;;;;;10.93;5.20;;;8.40;99.90;;;;;;5128160;27;20067;-82
2022/05/31 00:27:08;;;;;;;6.47;5.47;;;8.70;99.90;;;;;;5119506;27;20491;-82
2022/05/31 00:29:35;;;;;;;5.93;5.00;;;8.50;99.90;;;;;;5120226;27;20559;-82
2022/05/31 00:32:05;;;;;;;6.55;4.90;;;8.50;99.90;;;;;;5120014;27;20046;-81
2022/05/31 00:34:35;;;;;;;8.50;4.43;;;8.60;99.90;;;;;;5119840;27;20043;-82
2022/05/31 00:37:02;;;;;;;6.22;5.07;;;8.60;99.90;;;;;;5138797;27;20130;-83
2022/05/31 00:39:29;;;;;;;6.28;4.80;;;8.60;99.90;;;;;;5132674;27;20072;-82
2022/05/31 00:42:00;;;;;;;7.03;4.72;;;9.30;99.90;;;;;;5140089;27;20055;-82
2022/05/31 00:44:29;;;;;;;9.45;5.50;;;10.20;99.90;;;;;;5140637;27;20051;-82
2022/05/31 00:46:59;;;;;;;6.47;4.97;;;9.10;99.90;;;;;;5158635;27;20375;-83
2022/05/31 00:49:31;;;;;;;6.85;4.82;;;8.80;99.90;;;;;;5140597;27;20058;-82
2022/05/31 00:52:01;;;;;;;8.23;5.15;;;8.80;99.90;;;;;;5158901;27;20053;-82
2022/05/31 00:54:33;;;;;;;6.45;4.65;;;8.50;99.90;;;;;;5160536;27;20050;-81
2022/05/31 00:57:01;;;;;;;5.68;4.10;;;8.90;99.90;;;;;;5161804;27;20050;-81
2022/05/31 00:59:35;;;;;;;7.20;4.75;;;8.90;99.90;;;;;;5159478;27;20050;-81
2022/05/31 01:02:03;;;;;;;7.18;4.93;;;8.90;99.90;;;;;;5138796;27;20050;-82
2022/05/31 01:04:33;;;;;;;15.23;4.57;;;9.00;99.90;;;;;;5141910;27;20050;-82
2022/05/31 01:07:02;;;;;;;;;;;9.00;99.90;;;;;;5158847;27;20061;-80
2022/05/31 01:09:29;;;;;;;5.60;3.65;;;9.10;99.90;;;;;;5140895;27;19972;-82
2022/05/31 01:11:58;;;;;;;6.43;4.20;;;9.00;99.90;;;;;;5122116;27;20047;-83
2022/05/31 01:14:26;;;;;;;6.72;4.28;;;9.10;99.90;;;;;;5118280;27;20134;-82
2022/05/31 01:16:56;;;;;;;5.35;4.10;;;9.10;99.90;;;;;;5119608;27;20039;-83
2022/05/31 01:22:10;;;;;;;6.75;4.68;;;9.10;99.90;;;;;;5118086;27;20074;-82
2022/05/31 01:24:48;;;;;;;5.85;4.10;;;10.00;99.90;;;;;;5137259;27;20047;-84
2022/05/31 01:27:32;;;;;;;5.07;3.92;;;9.00;99.90;;;;;;5118881;27;20091;-83
2022/05/31 01:30:01;;;;;;;6.15;4.07;;;9.20;99.90;;;;;;5152151;27;20050;-84
2022/05/31 01:32:28;;;;;;;6.30;4.05;;;9.20;99.90;;;;;;5136355;27;20047;-83
2022/05/31 01:35:01;;;;;;;5.72;4.20;;;9.20;99.90;;;;;;5136116;27;20059;-83
2022/05/31 01:37:37;;;;;;;7.45;4.20;;;9.20;99.90;;;;;;5117884;27;20100;-82
2022/05/31 01:40:10;;;;;;;5.18;3.92;;;9.60;99.90;;;;;;5155688;27;20055;-84
2022/05/31 01:42:42;;;;;;;5.30;3.95;;;9.20;99.90;;;;;;5156862;27;20056;-83
2022/05/31 01:45:12;;;;;;;5.65;4.20;;;9.20;99.90;;;;;;5139160;27;20055;-83
2022/05/31 01:47:39;;;;;;;5.10;4.38;;;9.20;99.90;;;;;;5139080;27;20099;-82
2022/05/31 01:50:12;;;;;;;5.88;3.80;;;9.30;99.90;;;;;;5138138;27;20059;-83
2022/05/31 01:52:42;;;;;;;10.85;4.05;;;9.30;99.90;;;;;;5157810;27;20443;-83
2022/05/31 01:55:11;;;;;;;5.70;4.20;;;9.30;99.90;;;;;;5139285;27;20390;-82
2022/05/31 01:57:39;;;;;;;6.03;3.83;;;9.30;99.90;;;;;;5156182;27;20122;-81
2022/05/31 02:00:09;;;;;;;5.40;4.03;;;9.30;99.90;;;;;;5138170;27;20050;-82
2022/05/31 02:02:36;;;;;;;;;;;9.30;99.90;;;;;;5157455;27;20070;-82
2022/05/31 02:05:04;;;;;;;5.50;3.33;;;9.40;99.90;;;;;;5156607;27;19926;-83
2022/05/31 02:07:31;;;;;;;5.25;3.88;;;9.40;99.90;;;;;;5159956;27;20063;-82
2022/05/31 02:09:59;;;;;;;4.80;3.35;;;9.40;99.90;;;;;;5154321;27;20047;-83
2022/05/31 02:12:30;;;;;;;4.97;3.47;;;9.40;99.90;;;;;;5155224;27;20051;-83
2022/05/31 02:14:58;;;;;;;4.70;3.65;;;10.10;99.90;;;;;;5147353;27;20057;-83
2022/05/31 02:17:25;;;;;;;6.80;4.35;;;10.40;99.90;;;;;;5135969;28;20064;-83
2022/05/31 02:19:52;;;;;;;8.13;3.83;;;10.40;99.90;;;;;;5136695;28;20047;-85
2022/05/31 02:22:22;;;;;;;4.72;3.83;;;9.40;99.90;;;;;;5144337;27;20402;-83
2022/05/31 02:24:49;;;;;;;5.60;4.20;;;9.50;99.90;;;;;;5137800;27;20089;-83
2022/05/31 02:27:18;;;;;;;9.02;4.63;;;9.50;99.90;;;;;;5138630;27;20050;-83
2022/05/31 02:29:45;;;;;;;7.57;5.25;;;10.10;99.90;;;;;;5156523;27;20054;-82
2022/05/31 02:32:14;;;;;;;5.55;3.85;;;9.50;99.90;;;;;;5138005;27;20092;-82
2022/05/31 02:34:44;;;;;;;4.35;3.78;;;10.30;99.90;;;;;;5157014;27;20062;-83
2022/05/31 02:37:11;;;;;;;6.43;4.80;;;10.40;99.90;;;;;;5137596;27;20057;-81
2022/05/31 02:39:38;;;;;;;5.47;4.30;;;9.50;99.90;;;;;;5136937;27;20050;-82
2022/05/31 02:42:06;;;;;;;5.95;4.60;;;9.50;99.90;;;;;;5137897;27;20046;-83
2022/05/31 02:44:35;;;;;;;7.18;5.15;;;9.50;99.90;;;;;;5156757;27;20043;-84
2022/05/31 02:47:02;;;;;;;5.72;4.40;;;9.50;99.90;;;;;;5141691;27;20055;-84
2022/05/31 02:49:29;;;;;;;5.57;4.72;;;9.50;99.90;;;;;;5142127;27;20050;-84
2022/05/31 02:51:59;;;;;;;7.90;4.35;;;10.20;99.90;;;;;;5151318;27;20092;-84
2022/05/31 02:54:27;;;;;;;7.45;4.75;;;10.00;99.90;;;;;;5139638;27;20046;-84
2022/05/31 02:56:53;;;;;;;6.65;4.70;;;9.50;99.90;;;;;;5121983;27;20460;-85
2022/05/31 02:59:20;;;;;;;5.68;4.20;;;9.50;99.90;;;;;;5120870;27;20068;-84
2022/05/31 03:01:50;;;;;;;8.02;4.65;;;10.40;99.90;;;;;;5121270;27;20058;-84
2022/05/31 03:04:18;;;;;;;5.35;4.05;;;10.50;99.90;;;;;;5135177;27;20055;-81
2022/05/31 03:06:45;;;;;;;7.60;4.30;;;9.50;99.90;;;;;;5134319;27;20402;-82
2022/05/31 03:09:12;;;;;;;6.78;4.05;;;9.50;99.90;;;;;;5150636;27;20063;-81
2022/05/31 03:11:43;;;;;;;6.30;4.80;;;9.50;99.90;;;;;;5131733;27;20063;-82
2022/05/31 03:14:16;;;;;;;6.30;4.20;;;10.50;99.90;;;;;;5127852;27;20486;-83
2022/05/31 03:16:45;;;;;;;6.03;4.20;;;9.50;99.90;;;;;;5139476;27;20051;-80
2022/05/31 03:19:20;;;;;;;5.40;3.83;;;9.50;99.90;;;;;;5124519;27;20054;-82
2022/05/31 03:21:52;;;;;;;5.07;3.78;;;9.50;99.90;;;;;;5150940;27;20055;-81
2022/05/31 03:24:22;;;;;;;6.75;4.22;;;9.50;99.90;;;;;;5159524;27;20047;-80
2022/05/31 03:26:53;;;;;;;5.60;4.40;;;9.50;99.90;;;;;;5141526;27;20166;-85
2022/05/31 03:29:21;;;;;;;5.88;4.05;;;10.80;99.90;;;;;;5141219;27;20103;-84
2022/05/31 03:31:48;;;;;;;5.05;3.63;;;9.90;99.90;;;;;;5159955;27;20046;-85
2022/05/31 03:34:17;;;;;;;4.43;3.47;;;9.50;99.90;;;;;;5129052;27;20050;-86
2022/05/31 03:36:44;;;;;;;6.75;3.70;;;9.80;99.90;;;;;;5121384;27;20095;-86
2022/05/31 03:39:11;;;;;;;7.10;4.10;;;9.60;99.90;;;;;;5120276;27;20050;-81
2022/05/31 03:41:38;;;;;;;4.65;3.65;;;9.50;99.90;;;;;;5137860;27;20047;-80
2022/05/31 03:44:05;;;;;;;5.20;4.00;;;9.50;99.90;;;;;;5137980;27;20482;-79
2022/05/31 03:46:32;;;;;;;5.70;3.72;;;9.60;99.90;;;;;;5142177;27;20051;-79
2022/05/31 03:49:00;;;;;;;4.97;3.40;;;9.60;99.90;;;;;;5146045;27;20519;-79
2022/05/31 03:51:28;;;;;;;5.80;3.95;;;9.60;99.90;;;;;;5151315;27;20087;-79
2022/05/31 03:53:55;;;;;;;6.75;3.83;;;9.60;99.90;;;;;;5157641;27;20046;-78
2022/05/31 03:56:22;;;;;;;5.90;4.07;;;10.30;99.90;;;;;;5150921;27;20046;-79
2022/05/31 03:58:49;;;;;;;5.80;3.53;;;9.70;99.90;;;;;;5154843;27;20043;-80
2022/05/31 04:01:16;;;;;;;5.03;3.85;;;9.70;99.90;;;;;;5136041;27;20049;-80
2022/05/31 04:03:43;;;;;;;6.28;3.70;;;9.60;99.90;;;;;;5138609;27;20523;-79
2022/05/31 04:06:10;;;;;;;7.22;4.30;;;9.70;99.90;;;;;;5143941;27;22784;-80
2022/05/31 04:08:39;;;;;;;4.68;3.60;;;10.90;99.90;;;;;;5140625;27;20042;-81
2022/05/31 04:11:05;;;;;;;6.38;3.95;;;9.80;99.90;;;;;;5159724;27;20050;-79
2022/05/31 04:13:32;;;;;;;9.35;4.00;;;9.90;99.90;;;;;;5140697;27;20061;-80
2022/05/31 04:16:04;;;;;;;8.73;4.40;;;10.50;99.90;;;;;;5145404;27;20059;-81
2022/05/31 04:18:31;;;;;;;4.70;3.67;;;10.60;99.90;;;;;;5134121;27;20158;-80
2022/05/31 04:21:02;;;;;;;6.65;4.35;;;10.20;99.90;;;;;;5131427;27;20073;-79
2022/05/31 04:26:18;;;;;;;9.02;4.32;;;10.30;99.90;;;;;;5147311;27;20397;-79
2022/05/31 04:28:46;;;;;;;5.32;3.92;;;10.30;99.90;;;;;;5160809;27;20038;-78
2022/05/31 04:31:13;;;;;;;5.05;4.28;;;11.10;99.90;;;;;;5164580;27;20054;-80
2022/05/31 04:33:40;;;;;;;8.30;4.85;;;10.40;99.90;;;;;;5140596;27;20042;-79
2022/05/31 04:36:09;;;;;;;4.85;3.65;;;10.40;99.90;;;;;;5139847;27;20104;-81
2022/05/31 04:38:36;;;;;;;5.38;3.70;;;10.50;99.90;;;;;;5135541;27;20043;-79
2022/05/31 04:41:04;;;;;;;5.85;3.83;;;10.50;99.90;;;;;;5162143;27;20084;-79
2022/05/31 04:43:33;;;;;;;6.43;4.40;;;10.50;99.90;;;;;;5141797;27;20047;-79
2022/05/31 04:46:09;;;;;;;5.80;3.78;;;11.10;99.90;;;;;;5127537;27;20051;-80
2022/05/31 04:48:36;;;;;;;6.97;4.57;;;10.50;99.90;;;;;;5142159;27;20497;-81
2022/05/31 04:51:03;;;;;;;6.22;4.18;;;10.50;99.90;;;;;;5144386;27;20051;-82
2022/05/31 04:53:31;;;;;;;12.90;4.63;;;10.50;99.90;;;;;;5170131;27;20102;-80
2022/05/31 04:56:01;;;;;;;7.57;4.47;;;10.80;99.90;;;;;;5152039;27;20078;-80
2022/05/31 04:58:28;;;;;;;6.60;4.63;;;10.60;99.90;;;;;;5158078;27;20051;-77
2022/05/31 05:00:56;;;;;;;7.57;4.35;;;10.70;99.90;;;;;;5164648;27;20093;-82
2022/05/31 05:03:23;;;;;;;10.15;4.72;;;10.50;99.90;;;;;;5155487;27;20062;-84
2022/05/31 05:05:50;;;;;;;5.65;4.43;;;10.60;99.90;;;;;;5122556;27;20047;-83
2022/05/31 05:08:17;;;;;;;5.88;4.70;;;11.30;99.90;;;;;;5146785;27;20444;-83
2022/05/31 05:10:47;;;;;;;8.80;4.93;;;10.60;99.90;;;;;;5123362;27;20079;-83
2022/05/31 05:13:14;;;;;;;6.57;5.00;;;10.90;99.90;;;;;;5132581;27;20055;-86
2022/05/31 05:15:42;;;;;;;7.47;5.40;;;10.70;99.90;;;;;;5133377;27;20043;-83
2022/05/31 05:18:10;;;;;;;7.90;5.10;;;10.70;99.90;;;;;;5130658;27;20043;-84
2022/05/31 05:20:39;;;;;;;7.03;5.03;;;11.10;99.90;;;;;;5148279;27;20095;-84
2022/05/31 05:23:06;;;;;;;6.95;4.80;;;10.80;99.90;;;;;;5137340;27;20050;-84
2022/05/31 05:25:34;;;;;;;6.35;5.05;;;10.80;99.90;;;;;;5150841;27;20047;-83
2022/05/31 05:28:01;;;;;;;6.18;4.95;;;10.90;99.90;;;;;;5153532;27;20039;-84
2022/05/31 05:30:47;;;;;;;6.00;4.50;;;11.00;99.90;;;;;;5134201;27;20075;-84
2022/05/31 05:33:15;;;;;;;10.48;5.28;;;11.00;99.90;;;;;;5134071;27;20074;-85
2022/05/31 05:35:42;;;;;;;8.27;5.22;;;11.00;99.90;;;;;;5134095;27;20050;-85
2022/05/31 05:38:09;;;;;;;6.38;4.88;;;11.10;99.90;;;;;;5133108;27;20043;-85
2022/05/31 05:40:36;;;;;;;8.95;5.40;;;11.40;99.90;;;;;;5153162;27;20569;-85
2022/05/31 05:43:06;;;;;;;9.30;5.00;;;11.30;99.90;;;;;;5136099;27;20103;-83
2022/05/31 05:45:33;;;;;;;7.97;4.78;;;11.20;99.90;;;;;;5138626;27;20575;-83
2022/05/31 05:48:00;;;;;;;9.27;5.45;;;11.30;99.90;;;;;;5130952;27;20134;-82
2022/05/31 05:50:28;;;;;;;9.90;5.75;;;11.30;99.90;;;;;;5129705;27;20054;-83
2022/05/31 05:52:58;;;;;;;8.38;4.90;;;11.30;99.90;;;;;;5151933;27;20047;-83
2022/05/31 05:55:26;;;;;;;13.70;5.68;;;11.40;99.90;;;;;;5153097;27;20394;-85
2022/05/31 05:57:54;;;;;;;7.95;4.80;;;12.40;99.90;;;;;;5132739;27;20055;-83
2022/05/31 06:00:22;;;;;;;7.70;5.03;;;11.50;99.90;;;;;;5136953;27;20078;-83
2022/05/31 06:02:55;;;;;;;10.05;4.70;;;11.60;99.90;;;;;;5149791;27;20062;-83
2022/05/31 06:05:27;;;;;;;6.45;5.00;;;11.60;99.90;;;;;;5151505;27;20038;-85
2022/05/31 06:08:01;;;;;;;8.55;5.22;;;11.70;99.90;;;;;;5133022;27;20099;-84
2022/05/31 06:10:31;;;;;;;8.55;5.00;;;11.70;99.90;;;;;;5145256;27;20050;-84
2022/05/31 06:13:02;;;;;;;8.10;5.00;;;11.80;99.90;;;;;;5170576;27;20047;-83
2022/05/31 06:15:32;;;;;;;8.32;5.03;;;12.00;99.90;;;;;;5165533;27;20046;-82
2022/05/31 06:18:02;;;;;;;6.57;4.67;;;11.90;99.90;;;;;;5146893;27;20062;-83
2022/05/31 06:20:30;;;;;;;12.00;5.22;;;12.20;99.90;;;;;;5143509;27;20058;-85
2022/05/31 06:22:59;;;;;;;6.15;4.47;;;12.10;99.90;;;;;;5170060;27;20054;-85
2022/05/31 06:25:26;;;;;;;8.95;4.75;;;12.20;99.90;;;;;;5141707;27;20573;-85
2022/05/31 06:27:53;;;;;;;8.23;4.80;;;12.70;99.90;;;;;;5157245;27;20281;-85
2022/05/31 06:30:20;;;;;;;12.43;4.60;;;13.10;99.90;;;;;;5155810;27;20041;-83
2022/05/31 06:32:48;;;;;;;8.90;4.70;;;12.60;99.90;;;;;;5153791;27;20091;-84
2022/05/31 06:35:14;;;;;;;8.20;4.78;;;12.70;99.90;;;;;;5158462;27;20047;-84
2022/05/31 06:37:41;;;;;;;5.63;4.50;;;13.20;99.90;;;;;;5159990;27;20591;-84
2022/05/31 06:40:11;;;;;;;6.75;4.50;;;14.00;99.90;;;;;;5134061;27;20088;-83
2022/05/31 06:42:38;;;;;;;6.93;4.18;;;13.00;99.90;;;;;;5156423;27;20047;-83
2022/05/31 06:45:06;;;;;;;5.10;4.13;;;13.00;99.90;;;;;;5137000;27;20046;-83
2022/05/31 06:47:33;;;;;;;8.38;4.40;;;13.20;99.90;;;;;;5152485;27;20046;-83
2022/05/31 06:49:59;;;;;;;6.28;3.80;;;13.20;99.90;;;;;;5136426;27;20059;-82
2022/05/31 06:57:56;;;;;;;8.48;3.65;;;13.40;99.90;;;;;;5139691;27;20027;-82
2022/05/31 07:00:24;;;;;;;5.80;3.75;;;13.50;99.90;;;;;;5165963;27;20043;-84
2022/05/31 07:02:52;;;;;;;7.47;3.53;;;13.60;99.90;;;;;;5163383;27;20086;-80
2022/05/31 07:05:20;;;;;;;6.18;3.67;;;13.70;99.90;;;;;;5139136;27;20054;-92
2022/05/31 07:07:47;;;;;;;6.72;3.33;;;13.80;99.90;;;;;;5143441;27;20065;-87
2022/05/31 07:10:16;;;;;;;9.18;3.88;;;14.00;99.90;;;;;;5161121;27;20043;-85
2022/05/31 07:12:46;;;;;;;4.30;3.13;;;14.60;99.90;;;;;;5166059;27;20302;-83
2022/05/31 07:15:20;;;;;;;6.45;3.33;;;14.20;99.90;;;;;;5146311;27;20360;-82
2022/05/31 07:17:56;;;;;;;6.45;3.72;;;14.40;99.90;;;;;;5146830;27;20133;-82
2022/05/31 07:20:29;;;;;;;5.90;3.22;;;14.60;99.90;;;;;;5145575;27;20426;-82
2022/05/31 07:22:58;;;;;;;5.97;3.10;;;15.50;99.90;;;;;;5166424;27;20046;-83
2022/05/31 07:25:40;;;;;;;6.32;3.50;;;14.80;99.90;;;;;;5168032;27;20077;-80
2022/05/31 07:28:15;;;;;;;6.80;3.17;;;14.10;99.90;;;;;;5169775;27;20086;-82
2022/05/31 07:30:44;;;;;;;7.38;3.95;;;14.90;99.90;;;;;;5151536;27;20065;-83
2022/05/31 07:36:18;;;;;;;5.57;3.70;;;16.00;99.90;;;;;;5148385;27;20058;-85
2022/05/31 07:39:18;;;;;;;6.60;3.78;;;16.90;99.90;;;;;;5148108;27;20125;-81
2022/05/31 07:41:57;;;;;;;4.72;3.20;;;16.80;99.90;;;;;;5157772;27;20134;-79
2022/05/31 07:44:25;;;;;;;5.35;2.90;;;17.40;99.90;;;;;;5153422;27;20043;-81
2022/05/31 07:46:53;;;;;;;5.70;3.60;;;17.90;99.90;;;;;;5121061;27;20486;-78
2022/05/31 07:49:20;;;;;;;4.90;3.15;;;18.20;99.90;;;;;;5148133;27;20042;-78
2022/05/31 07:51:48;;;;;;;5.07;2.97;;;18.30;99.90;;;;;;5139214;27;20535;-78
2022/05/31 07:54:15;;;;;;;4.90;3.15;;;18.40;99.90;;;;;;5136501;27;20095;-78
2022/05/31 07:56:42;;;;;;;5.15;2.97;;;18.30;99.90;;;;;;5152453;27;20564;-78
2022/05/31 07:59:10;;;;;;;6.38;3.00;;;18.00;99.90;;;;;;5137237;27;20043;-77
2022/05/31 08:01:37;;;;;;;4.88;2.90;;;17.90;99.90;;;;;;5117985;27;20055;-78
2022/05/31 08:04:04;;;;;;;4.70;2.80;;;18.00;99.90;;;;;;5118504;27;20059;-77
2022/05/31 08:06:33;;;;;;;5.18;3.30;;;18.60;99.90;;;;;;5136680;27;20058;-77
2022/05/31 08:09:00;;;;;;;5.30;2.95;;;19.20;99.60;;;;;;5141152;27;20054;-78
2022/05/31 08:11:30;;;;;;;6.63;3.05;;;19.60;99.80;;;;;;5157493;27;20051;-78
2022/05/31 08:13:58;;;;;;;3.60;2.53;;;20.00;98.70;;;;;;5139066;27;20114;-78
2022/05/31 08:16:28;;;;;;;5.50;3.03;;;20.20;98.30;;;;;;5138461;27;20046;-77
2022/05/31 08:18:56;;;;;;;4.93;2.63;;;20.50;97.20;;;;;;5139278;27;20042;-78
2022/05/31 08:21:28;;;;;;;5.28;3.08;;;20.90;97.20;;;;;;5139436;27;20046;-78
2022/05/31 08:23:55;;;;;;;3.83;2.65;;;21.10;95.00;;;;;;5138263;27;20459;-78
2022/05/31 08:26:22;;;;;;;3.55;2.33;;;21.10;94.30;;;;;;5138653;27;20046;-78
2022/05/31 08:28:49;;;;;;;6.88;2.80;;;21.20;93.80;;;;;;5156944;27;20043;-78
2022/05/31 08:31:20;;;;;;;4.05;2.50;;;21.10;93.20;;;;;;5138212;27;20134;-79
2022/05/31 08:33:49;;;;;;;3.97;2.67;;;20.90;92.40;;;;;;5138786;27;20490;-79
2022/05/31 08:36:16;;;;;;;6.45;2.72;;;20.80;92.10;;;;;;5139223;27;20047;-79
2022/05/31 08:38:43;;;;;;;6.80;2.75;;;20.80;92.00;;;;;;5138691;27;20482;-78
2022/05/31 08:41:21;;;;;;;5.35;2.50;;;20.80;91.80;;;;;;5138942;27;20050;-79
2022/05/31 08:44:03;;;;;;;5.03;2.55;;;20.90;90.80;;;;;;5136966;27;20406;-78
2022/05/31 08:46:54;;;;;;;4.30;2.58;;;21.10;89.90;;;;;;5135656;27;20047;-77
2022/05/31 08:52:24;;;;;;;6.47;2.53;;;21.00;90.60;;;;;;5135457;27;20406;-77
2022/05/31 08:57:47;;;;;;;4.20;3.15;;;20.80;90.90;;;;;;5136197;27;20050;-79
2022/05/31 09:00:18;;;;;;;6.72;2.70;;;21.00;91.10;;;;;;5117231;27;20120;-80
2022/05/31 09:02:52;;;;;;;4.55;2.80;;;21.00;91.30;;;;;;5117039;27;20059;-79
2022/05/31 09:05:29;;;;;;;4.68;2.80;;;20.90;90.70;;;;;;5116491;27;20039;-78
2022/05/31 09:08:03;;;;;;;4.72;2.90;;;20.60;89.90;;;;;;5117244;27;20054;-81
2022/05/31 09:10:37;;;;;;;6.43;2.78;;;20.70;90.10;;;;;;5135842;27;20047;-82
2022/05/31 09:13:11;;;;;;;7.35;2.80;;;21.20;90.50;;;;;;5116680;27;20063;-79
2022/05/31 09:15:42;;;;;;;5.45;2.33;;;21.60;88.90;;;;;;5140868;27;20091;-88
2022/05/31 09:18:12;;;;;;;3.85;2.20;;;22.40;88.50;;;;;;5121895;27;20051;-83
2022/05/31 09:20:46;;;;;;;15.45;2.20;;;22.80;85.80;;;;;;5117007;27;20051;-83
2022/05/31 09:23:18;;;;;;;3.75;1.80;;;23.20;78.50;;;;;;5136359;27;20147;-81
2022/05/31 09:25:48;;;;;;;2.97;1.85;;;23.60;78.90;;;;;;5117618;27;20410;-80
2022/05/31 09:28:19;;;;;;;;;;;23.90;78.10;;;;;;5134870;27;20112;-81
2022/05/31 09:30:48;;;;;;;3.85;1.92;;;24.20;70.20;;;;;;5135702;27;19971;-82
2022/05/31 09:33:22;;;;;;;2.67;1.83;;;24.30;74.60;;;;;;5134551;27;20043;-81
2022/05/31 09:36:04;;;;;;;4.03;2.08;;;24.50;71.80;;;;;;5117173;27;20051;-80
2022/05/31 09:39:10;;;;;;;4.05;1.90;;;23.90;69.10;;;;;;5117434;27;20074;-80
2022/05/31 09:41:43;;;;;;;4.78;2.22;;;23.70;68.40;;;;;;5104342;27;20517;-80
2022/05/31 09:44:20;;;;;;;4.57;2.10;;;23.70;72.60;;;;;;5117177;27;20082;-81
2022/05/31 09:46:52;;;;;;;3.03;2.00;;;23.30;69.30;;;;;;5151202;27;20085;-79
2022/05/31 09:49:30;;;;;;;4.07;2.42;;;23.10;68.70;;;;;;5136834;27;20387;-80
2022/05/31 09:51:59;;;;;;;4.82;2.28;;;22.90;67.50;;;;;;5138131;27;20099;-83
2022/05/31 09:57:15;;;;;;;6.35;2.67;;;22.30;71.70;;;;;;5137603;27;20450;-81
2022/05/31 09:59:49;;;;;;;6.57;3.25;;;22.10;71.20;;;;;;5137362;27;20612;-79
2022/05/31 10:02:26;;;;;;;5.93;3.25;;;21.80;69.00;;;;;;5155020;27;20051;-81
2022/05/31 10:05:16;;;;;;;5.25;3.05;;;21.60;70.70;;;;;;5155694;27;20502;-81
2022/05/31 10:07:46;;;;;;;4.78;2.80;;;22.10;70.60;;;;;;5156155;27;20095;-82
2022/05/31 10:10:15;;;;;;;4.65;2.30;;;22.40;70.30;;;;;;5137234;27;20047;-80
2022/05/31 10:12:51;;;;;;;7.03;3.65;;;22.30;70.80;;;;;;5141130;27;20057;-81
2022/05/31 10:15:41;;;;;;;6.07;3.55;;;22.10;69.40;;;;;;5137289;27;20058;-79
2022/05/31 10:18:11;;;;;;;6.05;3.42;;;21.70;68.00;;;;;;5156385;27;20058;-82
2022/05/31 10:20:51;;;;;;;3.60;2.92;;;21.30;68.90;;;;;;5156043;27;20513;-82
2022/05/31 10:23:24;;;;;;;4.95;2.80;;;20.90;69.20;;;;;;5136352;27;20448;-82
2022/05/31 10:25:54;;;;;;;4.25;2.42;;;20.60;69.60;;;;;;5137300;27;20078;-81
2022/05/31 10:28:29;;;;;;;3.67;2.55;;;20.60;69.80;;;;;;5137725;27;20055;-83
2022/05/31 10:31:04;;;;;;;4.50;2.33;;;20.50;69.70;;;;;;5136607;27;20046;-81
2022/05/31 10:33:32;;;;;;;5.38;3.35;;;20.50;70.70;;;;;;5137106;27;20055;-80
2022/05/31 10:36:16;;;;;;;8.25;3.05;;;20.40;70.80;;;;;;5155893;27;20047;-83
2022/05/31 10:38:46;;;;;;;5.18;3.20;;;20.50;70.90;;;;;;5135894;27;20050;-79
2022/05/31 10:41:24;;;;;;;5.00;2.60;;;20.50;70.80;;;;;;5134299;28;20043;-79
2022/05/31 10:43:53;;;;;;;6.47;3.53;;;20.50;69.80;;;;;;5114989;28;20070;-79
2022/05/31 10:46:27;;;;;;;6.13;2.38;;;20.50;70.00;;;;;;5134980;27;20043;-79
2022/05/31 10:48:58;;;;;;;4.25;2.50;;;20.40;69.20;;;;;;5114829;27;20122;-78
2022/05/31 10:51:47;;;;;;;5.90;3.42;;;20.50;70.40;;;;;;5147695;27;20050;-79
2022/05/31 10:54:56;;;;;;;4.68;2.45;;;20.50;70.50;;;;;;5117587;28;20058;-78
2022/05/31 10:57:48;;;;;;;3.60;2.50;;;20.40;70.20;;;;;;5132601;27;20047;-78
2022/05/31 11:00:19;;;;;;;6.07;2.60;;;20.30;69.90;;;;;;5132462;27;20047;-78
2022/05/31 11:03:10;;;;;;;5.82;2.80;;;20.30;70.10;;;;;;5132340;27;20051;-78
2022/05/31 11:05:46;;;;;;;7.68;2.70;;;20.20;70.40;;;;;;5131701;27;20055;-77
2022/05/31 11:11:33;;;;;;;4.53;2.20;;;20.50;69.90;;;;;;5142471;27;20075;-78
2022/05/31 11:14:23;;;;;;;5.05;2.30;;;20.70;68.70;;;;;;5133995;27;20051;-79
2022/05/31 11:17:03;;;;;;;4.03;2.10;;;20.70;68.80;;;;;;5128193;27;20535;-77
2022/05/31 11:19:40;;;;;;;3.90;2.72;;;20.90;69.80;;;;;;5117324;27;20051;-78
2022/05/31 11:22:26;;;;;;;6.63;2.67;;;21.10;69.10;;;;;;5120457;27;20051;-78
2022/05/31 11:25:07;;;;;;;6.70;2.80;;;21.10;69.00;;;;;;5138155;27;20054;-77
2022/05/31 11:27:45;;;;;;;7.85;2.70;;;21.20;67.60;;;;;;5155624;27;20074;-78
2022/05/31 11:30:21;;;;;;;5.32;2.28;;;21.50;67.90;;;;;;5156130;27;20402;-77
2022/05/31 11:33:24;;;;;;;5.20;2.67;;;21.50;68.10;;;;;;5131661;27;20051;-78
2022/05/31 11:36:07;;;;;;;4.70;2.40;;;21.70;64.80;;;;;;5130564;27;20054;-78
2022/05/31 11:38:44;;;;;;;4.03;2.15;;;22.20;66.20;;;;;;5126877;27;20061;-79
2022/05/31 11:41:20;;;;;;;4.57;2.30;;;22.30;65.40;;;;;;5141919;27;20068;-77
2022/05/31 11:44:31;;;;;;;5.97;3.00;;;22.40;64.80;;;;;;5122178;27;20055;-77
2022/05/31 11:47:04;;;;;;;5.10;2.40;;;22.60;62.00;;;;;;5119911;27;20111;-77
2022/05/31 11:49:41;;;;;;;7.65;3.20;;;22.80;63.50;;;;;;5136869;27;20043;-77
2022/05/31 11:52:21;;;;;;;2.97;2.33;;;23.00;61.90;;;;;;5119100;27;20054;-78
2022/05/31 11:55:31;;;;;;;5.70;2.70;;;23.00;60.80;;;;;;5116382;27;20055;-79
2022/05/31 11:58:31;;;;;;;5.15;2.80;;;22.90;61.80;;;;;;5137952;27;20163;-77
2022/05/31 12:01:16;;;;;;;4.10;2.80;;;23.10;60.60;;;;;;5130864;27;20046;-78
2022/05/31 12:03:52;;;;;;;3.85;2.95;;;23.30;61.30;;;;;;5124892;27;20050;-77
2022/05/31 12:06:29;;;;;;;3.63;2.50;;;23.70;61.60;;;;;;5125871;27;20047;-78
2022/05/31 12:09:01;;;;;;;4.57;2.95;;;23.80;61.00;;;;;;5130860;27;20495;-77
2022/05/31 12:11:36;;;;;;;3.45;2.42;;;23.30;60.20;;;;;;5122831;27;20469;-76
2022/05/31 12:14:05;;;;;;;5.68;2.60;;;22.90;61.10;;;;;;5144659;27;20047;-77
2022/05/31 12:16:34;;;;;;;5.18;2.42;;;22.20;61.80;;;;;;5155352;27;20047;-77
2022/05/31 12:19:13;;;;;;;5.13;2.45;;;21.90;62.40;;;;;;5132819;27;20466;-78
2022/05/31 12:21:44;;;;;;;4.72;2.30;;;21.70;62.70;;;;;;5136280;27;20043;-78
2022/05/31 12:24:16;;;;;;;5.63;2.38;;;21.30;63.50;;;;;;5131539;27;20058;-77
2022/05/31 12:26:52;;;;;;;4.15;2.55;;;21.20;63.60;;;;;;5137127;27;20465;-77
2022/05/31 12:29:24;;;;;;;7.13;2.70;;;20.80;63.20;;;;;;5120226;27;20097;-78
2022/05/31 12:32:12;;;;;;;4.80;2.17;;;20.60;63.90;;;;;;5129569;27;20051;-77
2022/05/31 12:34:42;;;;;;;5.47;2.80;;;20.30;64.40;;;;;;5127812;27;20079;-78
2022/05/31 12:37:12;;;;;;;3.20;2.07;;;20.10;64.70;;;;;;5127898;27;20043;-78
2022/05/31 12:39:39;;;;;;;;;;;19.90;65.50;;;;;;5152211;27;20099;-77
2022/05/31 12:42:37;;;;;;;8.50;2.55;;;19.60;66.50;;;;;;5136135;27;19927;-78
2022/05/31 12:45:26;;;;;;;4.93;2.35;;;19.40;67.40;;;;;;5117954;27;20059;-78
2022/05/31 12:47:57;;;;;;;4.75;2.88;;;19.20;66.60;;;;;;5132552;27;20047;-78
2022/05/31 12:50:47;;;;;;;6.10;2.60;;;19.10;67.20;;;;;;5120597;27;20096;-79
2022/05/31 12:53:19;;;;;;;5.40;2.20;;;19.00;67.40;;;;;;5129874;27;20137;-77
2022/05/31 12:55:57;;;;;;;3.53;2.13;;;18.90;67.50;;;;;;5136524;27;20051;-78
2022/05/31 12:58:50;;;;;;;5.50;2.50;;;18.90;67.30;;;;;;5136416;27;20051;-77
2022/05/31 13:01:44;;;;;;;4.80;2.60;;;18.70;67.30;;;;;;5134717;27;20054;-78
2022/05/31 13:04:28;;;;;;;3.97;2.60;;;18.70;68.10;;;;;;5136287;27;20174;-78
2022/05/31 13:07:07;;;;;;;8.43;2.90;;;18.60;67.80;;;;;;5118691;27;20095;-76
2022/05/31 13:09:38;;;;;;;4.30;2.47;;;18.60;68.70;;;;;;5128050;27;20047;-76
2022/05/31 13:20:33;;;;;;;4.95;2.50;;;18.70;68.80;;;;;;5161604;27;20068;-77
2022/05/31 13:23:06;;;;;;;4.38;2.45;;;18.80;68.50;;;;;;5142655;27;20119;-77
2022/05/31 13:25:47;;;;;;;4.72;2.63;;;18.90;68.30;;;;;;5170485;27;20047;-76
2022/05/31 13:28:27;;;;;;;3.90;2.55;;;18.90;68.30;;;;;;5129543;27;20053;-78
2022/05/31 13:30:59;;;;;;;3.85;2.20;;;19.00;68.00;;;;;;5128737;27;20479;-76
2022/05/31 13:33:27;;;;;;;5.53;2.72;;;19.10;67.90;;;;;;5132345;27;20058;-77
2022/05/31 13:36:02;;;;;;;3.40;2.50;;;19.00;67.70;;;;;;5115294;27;20111;-76
2022/05/31 13:38:32;;;;;;;7.10;2.83;;;19.10;67.80;;;;;;5125577;27;20125;-76
2022/05/31 13:41:02;;;;;;;6.00;2.85;;;18.90;67.60;;;;;;5126118;27;20042;-76
2022/05/31 13:43:33;;;;;;;4.28;2.28;;;18.90;67.80;;;;;;5133114;27;20050;-77
2022/05/31 13:46:03;;;;;;;5.32;2.35;;;18.80;68.50;;;;;;5146971;27;20363;-77
2022/05/31 13:48:36;;;;;;;6.07;2.65;;;18.80;68.90;;;;;;5142151;27;20127;-77
2022/05/31 13:51:07;;;;;;;3.95;2.50;;;18.80;69.40;;;;;;5115584;27;20139;-77